sensor_id;sensor_type;location;lat;lon;timestamp;temperature;humidity
27409;DHT22;20413;50.782;7.152;2022-07-06T00:01:48;16.90;99.90
27409;DHT22;20413;50.782;7.152;2022-07-06T00:04:16;16.90;99.90
27409;DHT22;20413;50.782;7.152;2022-07-06T00:06:42;16.80;99.90
27409;DHT22;20413;50.782;7.152;2022-07-06T00:09:07;16.80;99.90
27409;DHT22;20413;50.782;7.152;2022-07-06T00:11:33;16.80;99.90
27409;DHT22;20413;50.782;7.152;2022-07-06T00:13:59;16.80;99.90
27409;DHT22;20413;50.782;7.152;2022-07-06T00:16:25;16.70;99.90
27409;DHT22;20413;50.782;7.152;2022-07-06T00:18:51;16.70;99.90
27409;DHT22;20413;50.782;7.152;2022-07-06T00:21:17;16.60;99.90
27409;DHT22;20413;50.782;7.152;2022-07-06T00:23:43;16.60;99.90
27409;DHT22;20413;50.782;7.152;2022-07-06T00:26:09;16.50;99.90
27409;DHT22;20413;50.782;7.152;2022-07-06T00:28:36;16.40;99.90
27409;DHT22;20413;50.782;7.152;2022-07-06T00:31:02;16.40;99.90
27409;DHT22;20413;50.782;7.152;2022-07-06T00:33:27;16.30;99.90
27409;DHT22;20413;50.782;7.152;2022-07-06T00:35:53;16.20;99.90
27409;DHT22;20413;50.782;7.152;2022-07-06T00:38:19;16.10;99.90
27409;DHT22;20413;50.782;7.152;2022-07-06T00:40:44;16.10;99.90
27409;DHT22;20413;50.782;7.152;2022-07-06T00:43:10;16.10;99.90
27409;DHT22;20413;50.782;7.152;2022-07-06T00:45:36;16.00;99.90
27409;DHT22;20413;50.782;7.152;2022-07-06T00:48:02;16.00;99.90
27409;DHT22;20413;50.782;7.152;2022-07-06T00:50:27;15.90;99.90
27409;DHT22;20413;50.782;7.152;2022-07-06T00:52:55;15.90;99.90
27409;DHT22;20413;50.782;7.152;2022-07-06T00:55:24;15.80;99.90
27409;DHT22;20413;50.782;7.152;2022-07-06T00:57:50;15.70;99.90
27409;DHT22;20413;50.782;7.152;2022-07-06T01:00:18;15.70;99.90
27409;DHT22;20413;50.782;7.152;2022-07-06T01:02:44;15.70;99.90
27409;DHT22;20413;50.782;7.152;2022-07-06T01:05:11;15.60;99.90
27409;DHT22;20413;50.782;7.152;2022-07-06T01:07:39;15.50;99.90
27409;DHT22;20413;50.782;7.152;2022-07-06T01:10:06;15.50;99.90
27409;DHT22;20413;50.782;7.152;2022-07-06T01:12:33;15.50;99.90
27409;DHT22;20413;50.782;7.152;2022-07-06T01:14:59;15.40;99.90
27409;DHT22;20413;50.782;7.152;2022-07-06T01:17:26;15.40;99.90
27409;DHT22;20413;50.782;7.152;2022-07-06T01:19:51;15.30;99.90
27409;DHT22;20413;50.782;7.152;2022-07-06T01:22:17;15.20;99.90
27409;DHT22;20413;50.782;7.152;2022-07-06T01:24:43;15.20;99.90
27409;DHT22;20413;50.782;7.152;2022-07-06T01:27:09;15.20;99.90
27409;DHT22;20413;50.782;7.152;2022-07-06T01:29:34;15.10;99.90
27409;DHT22;20413;50.782;7.152;2022-07-06T01:32:01;15.10;99.90
27409;DHT22;20413;50.782;7.152;2022-07-06T01:34:27;15.00;99.90
27409;DHT22;20413;50.782;7.152;2022-07-06T01:36:53;14.90;99.90
27409;DHT22;20413;50.782;7.152;2022-07-06T01:39:19;14.90;99.90
27409;DHT22;20413;50.782;7.152;2022-07-06T01:41:44;14.90;99.90
27409;DHT22;20413;50.782;7.152;2022-07-06T01:44:10;14.80;99.90
27409;DHT22;20413;50.782;7.152;2022-07-06T01:46:36;14.70;99.90
27409;DHT22;20413;50.782;7.152;2022-07-06T01:49:02;14.70;99.90
27409;DHT22;20413;50.782;7.152;2022-07-06T01:51:28;14.70;99.90
27409;DHT22;20413;50.782;7.152;2022-07-06T01:53:53;14.70;99.90
27409;DHT22;20413;50.782;7.152;2022-07-06T01:56:19;14.70;99.90
27409;DHT22;20413;50.782;7.152;2022-07-06T01:58:49;14.60;99.90
27409;DHT22;20413;50.782;7.152;2022-07-06T02:01:17;14.60;99.90
27409;DHT22;20413;50.782;7.152;2022-07-06T02:03:43;14.60;99.90
27409;DHT22;20413;50.782;7.152;2022-07-06T02:06:09;14.50;99.90
27409;DHT22;20413;50.782;7.152;2022-07-06T02:08:35;14.50;99.90
27409;DHT22;20413;50.782;7.152;2022-07-06T02:11:02;14.50;99.90
27409;DHT22;20413;50.782;7.152;2022-07-06T02:13:28;14.40;99.90
27409;DHT22;20413;50.782;7.152;2022-07-06T02:15:54;14.30;99.90
27409;DHT22;20413;50.782;7.152;2022-07-06T02:18:19;14.40;99.90
27409;DHT22;20413;50.782;7.152;2022-07-06T02:20:45;14.40;99.90
27409;DHT22;20413;50.782;7.152;2022-07-06T02:23:11;14.30;99.90
27409;DHT22;20413;50.782;7.152;2022-07-06T02:25:37;14.30;99.90
27409;DHT22;20413;50.782;7.152;2022-07-06T02:28:02;14.30;99.90
27409;DHT22;20413;50.782;7.152;2022-07-06T02:30:28;14.30;99.90
27409;DHT22;20413;50.782;7.152;2022-07-06T02:32:54;14.30;99.90
27409;DHT22;20413;50.782;7.152;2022-07-06T02:35:19;14.30;99.90
27409;DHT22;20413;50.782;7.152;2022-07-06T02:37:45;14.30;99.90
27409;DHT22;20413;50.782;7.152;2022-07-06T02:40:11;14.30;99.90
27409;DHT22;20413;50.782;7.152;2022-07-06T02:42:36;14.20;99.90
27409;DHT22;20413;50.782;7.152;2022-07-06T02:45:02;14.30;99.90
27409;DHT22;20413;50.782;7.152;2022-07-06T02:47:28;14.30;99.90
27409;DHT22;20413;50.782;7.152;2022-07-06T02:49:54;14.30;99.90
27409;DHT22;20413;50.782;7.152;2022-07-06T02:52:20;14.40;99.90
27409;DHT22;20413;50.782;7.152;2022-07-06T02:54:46;14.40;99.90
27409;DHT22;20413;50.782;7.152;2022-07-06T02:57:11;14.40;99.90
27409;DHT22;20413;50.782;7.152;2022-07-06T02:59:37;14.50;99.90
27409;DHT22;20413;50.782;7.152;2022-07-06T03:02:04;14.50;99.90
27409;DHT22;20413;50.782;7.152;2022-07-06T03:04:29;14.40;99.90
27409;DHT22;20413;50.782;7.152;2022-07-06T03:06:55;14.40;99.90
27409;DHT22;20413;50.782;7.152;2022-07-06T03:09:21;14.40;99.90
27409;DHT22;20413;50.782;7.152;2022-07-06T03:11:47;14.30;99.90
27409;DHT22;20413;50.782;7.152;2022-07-06T03:14:12;14.20;99.90
27409;DHT22;20413;50.782;7.152;2022-07-06T03:16:38;14.10;99.90
27409;DHT22;20413;50.782;7.152;2022-07-06T03:19:04;14.00;99.90
27409;DHT22;20413;50.782;7.152;2022-07-06T03:21:30;14.00;99.90
27409;DHT22;20413;50.782;7.152;2022-07-06T03:23:55;13.90;99.90
27409;DHT22;20413;50.782;7.152;2022-07-06T03:26:21;13.80;99.90
27409;DHT22;20413;50.782;7.152;2022-07-06T03:28:46;13.80;99.90
27409;DHT22;20413;50.782;7.152;2022-07-06T03:31:12;13.80;99.90
27409;DHT22;20413;50.782;7.152;2022-07-06T03:33:38;13.80;99.90
27409;DHT22;20413;50.782;7.152;2022-07-06T03:36:03;13.70;99.90
27409;DHT22;20413;50.782;7.152;2022-07-06T03:38:30;13.70;99.90
27409;DHT22;20413;50.782;7.152;2022-07-06T03:40:56;13.70;99.90
27409;DHT22;20413;50.782;7.152;2022-07-06T03:43:27;13.70;99.90
27409;DHT22;20413;50.782;7.152;2022-07-06T03:45:52;13.60;99.90
27409;DHT22;20413;50.782;7.152;2022-07-06T03:48:18;13.60;99.90
27409;DHT22;20413;50.782;7.152;2022-07-06T03:50:44;13.60;99.90
27409;DHT22;20413;50.782;7.152;2022-07-06T03:53:09;13.50;99.90
27409;DHT22;20413;50.782;7.152;2022-07-06T03:55:35;13.60;99.90
27409;DHT22;20413;50.782;7.152;2022-07-06T03:58:00;13.60;99.90
27409;DHT22;20413;50.782;7.152;2022-07-06T04:00:26;13.60;99.90
27409;DHT22;20413;50.782;7.152;2022-07-06T04:02:52;13.60;99.90
27409;DHT22;20413;50.782;7.152;2022-07-06T04:05:17;13.60;99.90
27409;DHT22;20413;50.782;7.152;2022-07-06T04:07:47;13.60;99.90
27409;DHT22;20413;50.782;7.152;2022-07-06T04:10:14;13.70;99.90
27409;DHT22;20413;50.782;7.152;2022-07-06T04:12:40;13.70;99.90
27409;DHT22;20413;50.782;7.152;2022-07-06T04:15:07;13.70;99.90
27409;DHT22;20413;50.782;7.152;2022-07-06T04:17:32;13.70;99.90
27409;DHT22;20413;50.782;7.152;2022-07-06T04:20:16;13.70;99.90
27409;DHT22;20413;50.782;7.152;2022-07-06T04:22:42;13.80;99.90
27409;DHT22;20413;50.782;7.152;2022-07-06T04:25:08;13.80;99.90
27409;DHT22;20413;50.782;7.152;2022-07-06T04:27:34;13.90;99.90
27409;DHT22;20413;50.782;7.152;2022-07-06T04:30:00;14.00;99.90
27409;DHT22;20413;50.782;7.152;2022-07-06T04:32:25;14.10;99.90
27409;DHT22;20413;50.782;7.152;2022-07-06T04:34:51;14.30;99.90
27409;DHT22;20413;50.782;7.152;2022-07-06T04:37:16;14.40;99.90
27409;DHT22;20413;50.782;7.152;2022-07-06T04:39:42;14.40;99.90
27409;DHT22;20413;50.782;7.152;2022-07-06T04:42:07;14.50;99.90
27409;DHT22;20413;50.782;7.152;2022-07-06T04:44:33;14.40;99.90
27409;DHT22;20413;50.782;7.152;2022-07-06T04:46:59;14.30;99.90
27409;DHT22;20413;50.782;7.152;2022-07-06T04:49:24;14.30;99.90
27409;DHT22;20413;50.782;7.152;2022-07-06T04:51:50;14.30;99.90
27409;DHT22;20413;50.782;7.152;2022-07-06T04:54:16;14.40;99.90
27409;DHT22;20413;50.782;7.152;2022-07-06T04:56:41;14.50;99.90
27409;DHT22;20413;50.782;7.152;2022-07-06T04:59:07;14.60;99.90
27409;DHT22;20413;50.782;7.152;2022-07-06T05:01:33;14.70;99.90
27409;DHT22;20413;50.782;7.152;2022-07-06T05:03:59;14.80;99.90
27409;DHT22;20413;50.782;7.152;2022-07-06T05:06:25;14.80;99.90
27409;DHT22;20413;50.782;7.152;2022-07-06T05:08:50;14.90;99.90
27409;DHT22;20413;50.782;7.152;2022-07-06T05:11:16;14.90;99.90
27409;DHT22;20413;50.782;7.152;2022-07-06T05:13:42;15.00;99.90
27409;DHT22;20413;50.782;7.152;2022-07-06T05:16:08;15.10;99.90
27409;DHT22;20413;50.782;7.152;2022-07-06T05:18:33;15.20;99.90
27409;DHT22;20413;50.782;7.152;2022-07-06T05:20:59;15.10;99.90
27409;DHT22;20413;50.782;7.152;2022-07-06T05:23:25;15.30;99.90
27409;DHT22;20413;50.782;7.152;2022-07-06T05:25:51;15.40;99.90
27409;DHT22;20413;50.782;7.152;2022-07-06T05:28:16;15.50;99.90
27409;DHT22;20413;50.782;7.152;2022-07-06T05:30:42;15.60;99.90
27409;DHT22;20413;50.782;7.152;2022-07-06T05:33:07;15.60;99.90
27409;DHT22;20413;50.782;7.152;2022-07-06T05:35:33;15.50;99.90
27409;DHT22;20413;50.782;7.152;2022-07-06T05:37:59;15.40;99.90
27409;DHT22;20413;50.782;7.152;2022-07-06T05:40:24;15.40;99.90
27409;DHT22;20413;50.782;7.152;2022-07-06T05:42:50;15.30;99.90
27409;DHT22;20413;50.782;7.152;2022-07-06T05:45:15;15.30;99.90
27409;DHT22;20413;50.782;7.152;2022-07-06T05:47:41;15.20;99.90
27409;DHT22;20413;50.782;7.152;2022-07-06T05:50:25;15.30;99.90
27409;DHT22;20413;50.782;7.152;2022-07-06T05:53:02;15.30;99.90
27409;DHT22;20413;50.782;7.152;2022-07-06T05:55:28;15.40;99.90
27409;DHT22;20413;50.782;7.152;2022-07-06T05:57:53;15.50;99.90
27409;DHT22;20413;50.782;7.152;2022-07-06T06:00:20;15.40;99.90
27409;DHT22;20413;50.782;7.152;2022-07-06T06:02:46;15.50;99.90
27409;DHT22;20413;50.782;7.152;2022-07-06T06:05:14;15.40;99.90
27409;DHT22;20413;50.782;7.152;2022-07-06T06:07:40;15.50;99.90
27409;DHT22;20413;50.782;7.152;2022-07-06T06:10:10;15.70;99.90
27409;DHT22;20413;50.782;7.152;2022-07-06T06:12:37;15.70;99.90
27409;DHT22;20413;50.782;7.152;2022-07-06T06:15:03;15.90;99.90
27409;DHT22;20413;50.782;7.152;2022-07-06T06:17:29;16.10;99.90
27409;DHT22;20413;50.782;7.152;2022-07-06T06:19:55;16.20;99.90
27409;DHT22;20413;50.782;7.152;2022-07-06T06:22:21;16.20;99.90
27409;DHT22;20413;50.782;7.152;2022-07-06T06:24:47;16.10;99.90
27409;DHT22;20413;50.782;7.152;2022-07-06T06:27:13;16.10;99.90
27409;DHT22;20413;50.782;7.152;2022-07-06T06:29:38;16.10;99.90
27409;DHT22;20413;50.782;7.152;2022-07-06T06:32:04;16.10;99.90
27409;DHT22;20413;50.782;7.152;2022-07-06T06:34:31;16.10;99.90
27409;DHT22;20413;50.782;7.152;2022-07-06T06:36:57;16.30;99.90
27409;DHT22;20413;50.782;7.152;2022-07-06T06:39:23;16.40;99.90
27409;DHT22;20413;50.782;7.152;2022-07-06T06:41:49;16.60;99.90
27409;DHT22;20413;50.782;7.152;2022-07-06T06:44:14;16.80;99.90
27409;DHT22;20413;50.782;7.152;2022-07-06T06:46:41;16.90;99.90
27409;DHT22;20413;50.782;7.152;2022-07-06T06:49:07;16.90;99.90
27409;DHT22;20413;50.782;7.152;2022-07-06T06:51:33;16.90;99.90
27409;DHT22;20413;50.782;7.152;2022-07-06T06:53:59;17.10;99.90
27409;DHT22;20413;50.782;7.152;2022-07-06T06:56:24;17.30;99.90
27409;DHT22;20413;50.782;7.152;2022-07-06T06:58:50;17.50;99.90
27409;DHT22;20413;50.782;7.152;2022-07-06T07:01:16;17.80;99.90
27409;DHT22;20413;50.782;7.152;2022-07-06T07:03:41;17.90;99.90
27409;DHT22;20413;50.782;7.152;2022-07-06T07:06:07;18.00;99.90
27409;DHT22;20413;50.782;7.152;2022-07-06T07:08:33;18.10;99.90
27409;DHT22;20413;50.782;7.152;2022-07-06T07:10:58;18.00;99.90
27409;DHT22;20413;50.782;7.152;2022-07-06T07:13:24;17.80;99.90
27409;DHT22;20413;50.782;7.152;2022-07-06T07:15:49;17.70;99.90
27409;DHT22;20413;50.782;7.152;2022-07-06T07:18:15;17.50;99.90
27409;DHT22;20413;50.782;7.152;2022-07-06T07:20:41;17.60;99.90
27409;DHT22;20413;50.782;7.152;2022-07-06T07:23:06;17.90;99.90
27409;DHT22;20413;50.782;7.152;2022-07-06T07:25:32;18.10;99.90
27409;DHT22;20413;50.782;7.152;2022-07-06T07:27:57;18.50;99.90
27409;DHT22;20413;50.782;7.152;2022-07-06T07:30:23;18.70;99.90
27409;DHT22;20413;50.782;7.152;2022-07-06T07:32:49;19.00;99.90
27409;DHT22;20413;50.782;7.152;2022-07-06T07:35:18;19.30;99.90
27409;DHT22;20413;50.782;7.152;2022-07-06T07:37:44;19.40;99.90
27409;DHT22;20413;50.782;7.152;2022-07-06T07:40:09;19.80;99.90
27409;DHT22;20413;50.782;7.152;2022-07-06T07:42:35;20.30;99.90
27409;DHT22;20413;50.782;7.152;2022-07-06T07:45:01;20.70;99.90
27409;DHT22;20413;50.782;7.152;2022-07-06T07:47:27;21.20;99.90
27409;DHT22;20413;50.782;7.152;2022-07-06T07:49:52;21.20;99.90
27409;DHT22;20413;50.782;7.152;2022-07-06T07:52:18;21.00;99.90
27409;DHT22;20413;50.782;7.152;2022-07-06T07:54:43;20.80;99.90
27409;DHT22;20413;50.782;7.152;2022-07-06T07:57:09;20.50;99.90
27409;DHT22;20413;50.782;7.152;2022-07-06T07:59:35;20.00;99.90
27409;DHT22;20413;50.782;7.152;2022-07-06T08:02:01;19.50;99.90
27409;DHT22;20413;50.782;7.152;2022-07-06T08:04:26;19.10;99.90
27409;DHT22;20413;50.782;7.152;2022-07-06T08:06:52;18.90;99.90
27409;DHT22;20413;50.782;7.152;2022-07-06T08:09:18;19.50;99.90
27409;DHT22;20413;50.782;7.152;2022-07-06T08:11:44;20.00;99.90
27409;DHT22;20413;50.782;7.152;2022-07-06T08:14:09;20.70;99.90
27409;DHT22;20413;50.782;7.152;2022-07-06T08:16:35;20.60;99.90
27409;DHT22;20413;50.782;7.152;2022-07-06T08:19:00;20.60;99.90
27409;DHT22;20413;50.782;7.152;2022-07-06T08:21:26;20.20;99.90
27409;DHT22;20413;50.782;7.152;2022-07-06T08:23:52;20.20;99.90
27409;DHT22;20413;50.782;7.152;2022-07-06T08:26:18;20.10;99.90
27409;DHT22;20413;50.782;7.152;2022-07-06T08:28:44;19.60;99.90
27409;DHT22;20413;50.782;7.152;2022-07-06T08:31:10;19.50;99.90
27409;DHT22;20413;50.782;7.152;2022-07-06T08:33:36;19.50;99.90
27409;DHT22;20413;50.782;7.152;2022-07-06T08:36:01;19.50;99.90
27409;DHT22;20413;50.782;7.152;2022-07-06T08:38:27;19.50;99.90
27409;DHT22;20413;50.782;7.152;2022-07-06T08:40:53;19.70;99.90
27409;DHT22;20413;50.782;7.152;2022-07-06T08:43:20;20.00;99.90
27409;DHT22;20413;50.782;7.152;2022-07-06T08:45:46;20.40;99.90
27409;DHT22;20413;50.782;7.152;2022-07-06T08:48:15;20.70;99.90
27409;DHT22;20413;50.782;7.152;2022-07-06T08:50:41;21.00;99.90
27409;DHT22;20413;50.782;7.152;2022-07-06T08:53:07;21.00;99.90
27409;DHT22;20413;50.782;7.152;2022-07-06T08:55:32;20.90;99.90
27409;DHT22;20413;50.782;7.152;2022-07-06T08:57:58;20.80;99.90
27409;DHT22;20413;50.782;7.152;2022-07-06T09:00:25;20.70;99.90
27409;DHT22;20413;50.782;7.152;2022-07-06T09:02:51;21.40;99.90
27409;DHT22;20413;50.782;7.152;2022-07-06T09:05:29;21.90;99.90
27409;DHT22;20413;50.782;7.152;2022-07-06T09:08:02;21.50;99.90
27409;DHT22;20413;50.782;7.152;2022-07-06T09:10:28;21.40;99.90
27409;DHT22;20413;50.782;7.152;2022-07-06T09:13:02;21.90;99.90
27409;DHT22;20413;50.782;7.152;2022-07-06T09:15:28;23.40;99.90
27409;DHT22;20413;50.782;7.152;2022-07-06T09:17:55;24.10;99.90
27409;DHT22;20413;50.782;7.152;2022-07-06T09:20:22;23.90;99.90
27409;DHT22;20413;50.782;7.152;2022-07-06T09:22:47;23.20;99.90
27409;DHT22;20413;50.782;7.152;2022-07-06T09:25:14;22.50;99.90
27409;DHT22;20413;50.782;7.152;2022-07-06T09:27:46;22.00;99.90
27409;DHT22;20413;50.782;7.152;2022-07-06T09:30:13;21.60;99.90
27409;DHT22;20413;50.782;7.152;2022-07-06T09:32:44;21.00;99.90
27409;DHT22;20413;50.782;7.152;2022-07-06T09:35:35;21.00;99.90
27409;DHT22;20413;50.782;7.152;2022-07-06T09:38:12;21.30;99.90
27409;DHT22;20413;50.782;7.152;2022-07-06T09:40:43;22.40;99.90
27409;DHT22;20413;50.782;7.152;2022-07-06T09:43:22;23.50;99.90
27409;DHT22;20413;50.782;7.152;2022-07-06T09:46:08;24.30;98.90
27409;DHT22;20413;50.782;7.152;2022-07-06T09:48:35;24.30;99.00
27409;DHT22;20413;50.782;7.152;2022-07-06T09:51:02;24.00;99.10
27409;DHT22;20413;50.782;7.152;2022-07-06T09:53:28;23.50;99.90
27409;DHT22;20413;50.782;7.152;2022-07-06T09:55:55;23.70;99.30
27409;DHT22;20413;50.782;7.152;2022-07-06T09:58:22;24.10;98.90
27409;DHT22;20413;50.782;7.152;2022-07-06T10:00:49;24.10;99.30
27409;DHT22;20413;50.782;7.152;2022-07-06T10:03:15;24.10;99.10
27409;DHT22;20413;50.782;7.152;2022-07-06T10:05:44;23.50;99.50
27409;DHT22;20413;50.782;7.152;2022-07-06T10:08:12;23.60;99.80
27409;DHT22;20413;50.782;7.152;2022-07-06T10:10:40;23.10;99.90
27409;DHT22;20413;50.782;7.152;2022-07-06T10:13:07;22.80;99.90
27409;DHT22;20413;50.782;7.152;2022-07-06T10:15:35;22.60;99.90
27409;DHT22;20413;50.782;7.152;2022-07-06T10:18:03;22.30;99.90
27409;DHT22;20413;50.782;7.152;2022-07-06T10:20:32;22.10;99.90
27409;DHT22;20413;50.782;7.152;2022-07-06T10:23:00;22.00;99.90
27409;DHT22;20413;50.782;7.152;2022-07-06T10:25:26;21.90;99.90
27409;DHT22;20413;50.782;7.152;2022-07-06T10:27:53;21.70;99.90
27409;DHT22;20413;50.782;7.152;2022-07-06T10:30:20;21.90;99.90
27409;DHT22;20413;50.782;7.152;2022-07-06T10:32:48;21.90;99.90
27409;DHT22;20413;50.782;7.152;2022-07-06T10:35:15;21.80;99.90
27409;DHT22;20413;50.782;7.152;2022-07-06T10:37:43;21.70;99.90
27409;DHT22;20413;50.782;7.152;2022-07-06T10:40:09;21.60;99.90
27409;DHT22;20413;50.782;7.152;2022-07-06T10:43:01;21.50;99.90
27409;DHT22;20413;50.782;7.152;2022-07-06T10:50:40;22.20;99.90
27409;DHT22;20413;50.782;7.152;2022-07-06T10:53:13;22.30;99.90
27409;DHT22;20413;50.782;7.152;2022-07-06T10:55:42;22.10;99.90
27409;DHT22;20413;50.782;7.152;2022-07-06T10:58:09;22.20;99.90
27409;DHT22;20413;50.782;7.152;2022-07-06T11:00:50;22.30;99.90
27409;DHT22;20413;50.782;7.152;2022-07-06T11:03:39;22.90;99.90
27409;DHT22;20413;50.782;7.152;2022-07-06T11:06:08;24.00;99.20
27409;DHT22;20413;50.782;7.152;2022-07-06T11:08:44;24.90;98.20
27409;DHT22;20413;50.782;7.152;2022-07-06T11:14:09;26.20;95.30
27409;DHT22;20413;50.782;7.152;2022-07-06T11:19:22;27.50;92.10
27409;DHT22;20413;50.782;7.152;2022-07-06T11:21:53;27.60;92.20
27409;DHT22;20413;50.782;7.152;2022-07-06T11:24:29;27.50;91.10
27409;DHT22;20413;50.782;7.152;2022-07-06T11:26:57;28.10;90.50
27409;DHT22;20413;50.782;7.152;2022-07-06T11:29:24;29.10;90.80
27409;DHT22;20413;50.782;7.152;2022-07-06T11:31:52;29.30;86.70
27409;DHT22;20413;50.782;7.152;2022-07-06T11:34:28;29.30;85.30
27409;DHT22;20413;50.782;7.152;2022-07-06T11:37:12;29.20;85.50
27409;DHT22;20413;50.782;7.152;2022-07-06T11:39:42;28.60;86.40
27409;DHT22;20413;50.782;7.152;2022-07-06T11:42:13;27.50;88.80
27409;DHT22;20413;50.782;7.152;2022-07-06T11:44:40;26.20;90.00
27409;DHT22;20413;50.782;7.152;2022-07-06T11:47:07;25.90;90.30
27409;DHT22;20413;50.782;7.152;2022-07-06T11:49:34;25.70;91.20
27409;DHT22;20413;50.782;7.152;2022-07-06T11:52:08;25.80;91.30
27409;DHT22;20413;50.782;7.152;2022-07-06T11:54:34;25.40;92.00
27409;DHT22;20413;50.782;7.152;2022-07-06T11:57:00;25.40;93.40
27409;DHT22;20413;50.782;7.152;2022-07-06T11:59:28;24.70;94.70
27409;DHT22;20413;50.782;7.152;2022-07-06T12:04:34;24.10;92.90
27409;DHT22;20413;50.782;7.152;2022-07-06T12:07:02;23.60;93.90
27409;DHT22;20413;50.782;7.152;2022-07-06T12:09:31;23.40;93.60
27409;DHT22;20413;50.782;7.152;2022-07-06T12:11:57;24.10;95.50
27409;DHT22;20413;50.782;7.152;2022-07-06T12:14:23;24.90;93.30
27409;DHT22;20413;50.782;7.152;2022-07-06T12:16:49;25.30;93.70
27409;DHT22;20413;50.782;7.152;2022-07-06T12:19:16;26.30;92.20
27409;DHT22;20413;50.782;7.152;2022-07-06T12:21:49;27.10;90.90
27409;DHT22;20413;50.782;7.152;2022-07-06T12:24:29;27.00;91.60
27409;DHT22;20413;50.782;7.152;2022-07-06T12:27:12;27.70;90.60
27409;DHT22;20413;50.782;7.152;2022-07-06T12:29:38;27.40;88.60
27409;DHT22;20413;50.782;7.152;2022-07-06T12:32:04;26.20;91.20
27409;DHT22;20413;50.782;7.152;2022-07-06T12:34:31;25.50;91.90
27409;DHT22;20413;50.782;7.152;2022-07-06T12:37:05;24.70;91.80
27409;DHT22;20413;50.782;7.152;2022-07-06T12:39:31;24.20;94.10
27409;DHT22;20413;50.782;7.152;2022-07-06T12:42:04;24.10;93.30
27409;DHT22;20413;50.782;7.152;2022-07-06T12:44:33;24.10;93.10
27409;DHT22;20413;50.782;7.152;2022-07-06T12:47:08;25.00;91.30
27409;DHT22;20413;50.782;7.152;2022-07-06T12:49:35;25.70;89.40
27409;DHT22;20413;50.782;7.152;2022-07-06T12:52:09;26.20;90.30
27409;DHT22;20413;50.782;7.152;2022-07-06T12:54:45;26.80;88.20
27409;DHT22;20413;50.782;7.152;2022-07-06T12:57:19;26.40;89.10
27409;DHT22;20413;50.782;7.152;2022-07-06T12:59:55;26.00;90.30
27409;DHT22;20413;50.782;7.152;2022-07-06T13:02:24;25.30;91.20
27409;DHT22;20413;50.782;7.152;2022-07-06T13:05:07;24.90;91.00
27409;DHT22;20413;50.782;7.152;2022-07-06T13:07:35;24.50;91.50
27409;DHT22;20413;50.782;7.152;2022-07-06T13:10:02;24.20;92.20
27409;DHT22;20413;50.782;7.152;2022-07-06T13:12:28;24.40;91.90
27409;DHT22;20413;50.782;7.152;2022-07-06T13:14:54;24.00;93.30
27409;DHT22;20413;50.782;7.152;2022-07-06T13:17:19;24.40;93.40
27409;DHT22;20413;50.782;7.152;2022-07-06T13:19:45;24.90;91.70
27409;DHT22;20413;50.782;7.152;2022-07-06T13:22:10;24.80;91.80
27409;DHT22;20413;50.782;7.152;2022-07-06T13:24:36;24.70;92.20
27409;DHT22;20413;50.782;7.152;2022-07-06T13:27:02;24.90;91.20
27409;DHT22;20413;50.782;7.152;2022-07-06T13:29:28;25.10;90.90
27409;DHT22;20413;50.782;7.152;2022-07-06T13:31:54;25.00;91.40
27409;DHT22;20413;50.782;7.152;2022-07-06T13:34:20;24.90;92.40
27409;DHT22;20413;50.782;7.152;2022-07-06T13:36:45;24.70;91.70
27409;DHT22;20413;50.782;7.152;2022-07-06T13:39:11;24.50;92.30
27409;DHT22;20413;50.782;7.152;2022-07-06T13:41:37;24.40;92.10
27409;DHT22;20413;50.782;7.152;2022-07-06T13:44:03;24.40;93.10
27409;DHT22;20413;50.782;7.152;2022-07-06T13:46:30;24.40;93.10
27409;DHT22;20413;50.782;7.152;2022-07-06T13:48:56;24.50;93.10
27409;DHT22;20413;50.782;7.152;2022-07-06T13:51:25;24.70;93.00
27409;DHT22;20413;50.782;7.152;2022-07-06T13:53:52;24.90;92.60
27409;DHT22;20413;50.782;7.152;2022-07-06T13:56:18;25.40;92.90
27409;DHT22;20413;50.782;7.152;2022-07-06T13:58:43;26.00;92.20
27409;DHT22;20413;50.782;7.152;2022-07-06T14:01:09;26.60;92.30
27409;DHT22;20413;50.782;7.152;2022-07-06T14:03:35;27.20;91.90
27409;DHT22;20413;50.782;7.152;2022-07-06T14:06:03;27.00;89.60
27409;DHT22;20413;50.782;7.152;2022-07-06T14:08:29;27.00;90.90
27409;DHT22;20413;50.782;7.152;2022-07-06T14:10:55;27.30;88.20
27409;DHT22;20413;50.782;7.152;2022-07-06T14:13:22;27.10;87.00
27409;DHT22;20413;50.782;7.152;2022-07-06T14:15:48;26.80;89.70
27409;DHT22;20413;50.782;7.152;2022-07-06T14:18:15;26.80;90.10
27409;DHT22;20413;50.782;7.152;2022-07-06T14:20:43;26.90;89.60
27409;DHT22;20413;50.782;7.152;2022-07-06T14:23:09;27.30;87.70
27409;DHT22;20413;50.782;7.152;2022-07-06T14:25:36;26.90;88.30
27409;DHT22;20413;50.782;7.152;2022-07-06T14:28:01;27.20;88.00
27409;DHT22;20413;50.782;7.152;2022-07-06T14:30:27;27.20;89.70
27409;DHT22;20413;50.782;7.152;2022-07-06T14:32:53;27.30;89.00
27409;DHT22;20413;50.782;7.152;2022-07-06T14:35:18;27.70;85.50
27409;DHT22;20413;50.782;7.152;2022-07-06T14:37:44;27.50;89.00
27409;DHT22;20413;50.782;7.152;2022-07-06T14:40:10;27.20;86.20
27409;DHT22;20413;50.782;7.152;2022-07-06T14:42:35;27.00;86.50
27409;DHT22;20413;50.782;7.152;2022-07-06T14:45:01;26.20;87.20
27409;DHT22;20413;50.782;7.152;2022-07-06T14:47:26;26.20;88.70
27409;DHT22;20413;50.782;7.152;2022-07-06T14:49:52;26.50;91.40
27409;DHT22;20413;50.782;7.152;2022-07-06T14:52:18;26.40;88.00
27409;DHT22;20413;50.782;7.152;2022-07-06T14:54:44;25.70;88.80
27409;DHT22;20413;50.782;7.152;2022-07-06T14:57:10;26.00;92.60
27409;DHT22;20413;50.782;7.152;2022-07-06T14:59:36;26.80;90.20
27409;DHT22;20413;50.782;7.152;2022-07-06T15:02:02;27.80;91.20
27409;DHT22;20413;50.782;7.152;2022-07-06T15:04:28;28.10;84.80
27409;DHT22;20413;50.782;7.152;2022-07-06T15:06:53;28.30;86.40
27409;DHT22;20413;50.782;7.152;2022-07-06T15:09:19;28.00;83.00
27409;DHT22;20413;50.782;7.152;2022-07-06T15:11:44;27.50;84.20
27409;DHT22;20413;50.782;7.152;2022-07-06T15:14:11;27.50;86.30
27409;DHT22;20413;50.782;7.152;2022-07-06T15:16:37;26.90;87.40
27409;DHT22;20413;50.782;7.152;2022-07-06T15:19:03;26.10;88.30
27409;DHT22;20413;50.782;7.152;2022-07-06T15:21:28;25.80;88.30
27409;DHT22;20413;50.782;7.152;2022-07-06T15:23:54;26.20;90.40
27409;DHT22;20413;50.782;7.152;2022-07-06T15:26:20;27.00;88.70
27409;DHT22;20413;50.782;7.152;2022-07-06T15:28:46;27.50;89.30
27409;DHT22;20413;50.782;7.152;2022-07-06T15:31:12;28.10;85.60
27409;DHT22;20413;50.782;7.152;2022-07-06T15:33:37;28.40;84.00
27409;DHT22;20413;50.782;7.152;2022-07-06T15:36:03;28.30;83.00
27409;DHT22;20413;50.782;7.152;2022-07-06T15:38:29;28.40;86.00
27409;DHT22;20413;50.782;7.152;2022-07-06T15:40:54;28.50;83.70
27409;DHT22;20413;50.782;7.152;2022-07-06T15:43:28;27.90;82.80